Brannan Island, California
Current Conditions -  °F | °C
As of 6:58 AM on Sunday 23 Nov 2014 (Local Time) from KSUU Reporting Station
Clear Clear  
Wind Chill: 42°   Ceiling: Unl
Heat Index: 45°   Visibility: 10mi
Dew Point: 45°   Wind: 6mph
Humidity: 99%   Direction: 290°WNW
Pressure: 30.29"   Gusts: NA
Location:  38.1457°N, 121.624°W
Report Text: KSUU 231458Z AUTO 29005KT 10SM CLR 07/07 A3029 RMK AO2 SLP264 T00740072 52008 $
Loading
Personal Weather Stations






























Interactive Weather Map New forecast layout! Learn more

10-Day Weather Forecast

Advertisements
Track Severe Weather on mobile